Terminal Aerodrome Forecast
Issued by NWS Shreveport, LA

Home | Current Version | Previous Version | Text Only | Print | Product List | Glossary On
Versions: 1 2 3 4 5 6 7 8 9 10 11 12 13 14 15 16 17 18
406
FTUS44 KSHV 200521
TAFTXK
TAF
KTXK 200521Z 2006/2106 20010KT P6SM BKN015
      TEMPO 2008/2012 3SM BR BKN008
     FM201200 20010KT 5SM BR BKN008
      TEMPO 2014/2018 P6SM NSW SCT015 SCT250
     FM201800 22012G18KT P6SM SCT025 BKN250
     FM210000 18007KT P6SM SCT100 BKN250=

USA.gov is the U.S. government's official web portal to all federal, state and local government web resources and services.